sensor_id;sensor_type;location;lat;lon;timestamp;P1;durP1;ratioP1;P2;durP2;ratioP2
64932;SDS011;51446;53.850;10.662;2023-03-01T00:01:44;11.27;;;6.50;;
64932;SDS011;51446;53.850;10.662;2023-03-01T00:04:09;6.97;;;5.93;;
64932;SDS011;51446;53.850;10.662;2023-03-01T00:06:34;9.37;;;6.50;;
64932;SDS011;51446;53.850;10.662;2023-03-01T00:08:59;9.77;;;6.90;;
64932;SDS011;51446;53.850;10.662;2023-03-01T00:11:25;10.47;;;7.20;;
64932;SDS011;51446;53.850;10.662;2023-03-01T00:13:54;9.27;;;6.50;;
64932;SDS011;51446;53.850;10.662;2023-03-01T00:16:22;9.25;;;6.43;;
64932;SDS011;51446;53.850;10.662;2023-03-01T00:18:53;10.43;;;7.47;;
64932;SDS011;51446;53.850;10.662;2023-03-01T00:21:19;10.38;;;7.53;;
64932;SDS011;51446;53.850;10.662;2023-03-01T00:23:46;10.55;;;6.53;;
64932;SDS011;51446;53.850;10.662;2023-03-01T00:26:14;7.77;;;6.10;;
64932;SDS011;51446;53.850;10.662;2023-03-01T00:28:40;9.77;;;6.90;;
64932;SDS011;51446;53.850;10.662;2023-03-01T00:31:07;11.32;;;7.30;;
64932;SDS011;51446;53.850;10.662;2023-03-01T00:33:34;9.93;;;6.90;;
64932;SDS011;51446;53.850;10.662;2023-03-01T00:36:00;9.57;;;6.97;;
64932;SDS011;51446;53.850;10.662;2023-03-01T00:38:26;12.77;;;8.25;;
64932;SDS011;51446;53.850;10.662;2023-03-01T00:40:51;8.77;;;7.03;;
64932;SDS011;51446;53.850;10.662;2023-03-01T00:43:17;11.90;;;8.13;;
64932;SDS011;51446;53.850;10.662;2023-03-01T00:45:43;9.52;;;7.20;;
64932;SDS011;51446;53.850;10.662;2023-03-01T00:48:08;13.93;;;7.23;;
64932;SDS011;51446;53.850;10.662;2023-03-01T00:50:33;14.17;;;7.87;;
64932;SDS011;51446;53.850;10.662;2023-03-01T00:52:59;11.07;;;7.43;;
64932;SDS011;51446;53.850;10.662;2023-03-01T00:55:24;10.73;;;7.63;;
64932;SDS011;51446;53.850;10.662;2023-03-01T00:57:50;9.23;;;7.00;;
64932;SDS011;51446;53.850;10.662;2023-03-01T01:00:16;11.10;;;7.73;;
64932;SDS011;51446;53.850;10.662;2023-03-01T01:02:42;11.60;;;7.57;;
64932;SDS011;51446;53.850;10.662;2023-03-01T01:05:08;11.90;;;7.73;;
64932;SDS011;51446;53.850;10.662;2023-03-01T01:07:33;11.03;;;7.30;;
64932;SDS011;51446;53.850;10.662;2023-03-01T01:09:58;14.77;;;7.73;;
64932;SDS011;51446;53.850;10.662;2023-03-01T01:12:23;10.17;;;7.27;;
64932;SDS011;51446;53.850;10.662;2023-03-01T01:14:49;11.80;;;7.23;;
64932;SDS011;51446;53.850;10.662;2023-03-01T01:17:14;7.63;;;6.85;;
64932;SDS011;51446;53.850;10.662;2023-03-01T01:19:39;8.10;;;6.43;;
64932;SDS011;51446;53.850;10.662;2023-03-01T01:22:05;12.13;;;7.13;;
64932;SDS011;51446;53.850;10.662;2023-03-01T01:24:30;11.13;;;7.33;;
64932;SDS011;51446;53.850;10.662;2023-03-01T01:26:56;9.40;;;7.27;;
64932;SDS011;51446;53.850;10.662;2023-03-01T01:29:21;10.10;;;6.97;;
64932;SDS011;51446;53.850;10.662;2023-03-01T01:31:47;10.07;;;7.25;;
64932;SDS011;51446;53.850;10.662;2023-03-01T01:34:14;8.67;;;7.30;;
64932;SDS011;51446;53.850;10.662;2023-03-01T01:36:42;11.43;;;7.22;;
64932;SDS011;51446;53.850;10.662;2023-03-01T01:39:07;9.13;;;6.97;;
64932;SDS011;51446;53.850;10.662;2023-03-01T01:41:38;10.02;;;7.40;;
64932;SDS011;51446;53.850;10.662;2023-03-01T01:44:19;9.02;;;6.88;;
64932;SDS011;51446;53.850;10.662;2023-03-01T01:49:22;12.60;;;7.80;;
64932;SDS011;51446;53.850;10.662;2023-03-01T01:51:49;11.77;;;7.25;;
64932;SDS011;51446;53.850;10.662;2023-03-01T01:54:19;9.35;;;6.90;;
64932;SDS011;51446;53.850;10.662;2023-03-01T01:56:52;12.65;;;7.68;;
64932;SDS011;51446;53.850;10.662;2023-03-01T01:59:23;11.38;;;7.68;;
64932;SDS011;51446;53.850;10.662;2023-03-01T02:01:53;11.27;;;7.67;;
64932;SDS011;51446;53.850;10.662;2023-03-01T02:04:19;14.15;;;7.13;;
64932;SDS011;51446;53.850;10.662;2023-03-01T02:06:50;10.13;;;7.35;;
64932;SDS011;51446;53.850;10.662;2023-03-01T02:09:22;10.40;;;7.38;;
64932;SDS011;51446;53.850;10.662;2023-03-01T02:11:48;9.77;;;7.17;;
64932;SDS011;51446;53.850;10.662;2023-03-01T02:14:15;9.98;;;7.35;;
64932;SDS011;51446;53.850;10.662;2023-03-01T02:16:41;9.43;;;7.13;;
64932;SDS011;51446;53.850;10.662;2023-03-01T02:19:07;9.63;;;7.67;;
64932;SDS011;51446;53.850;10.662;2023-03-01T02:27:13;10.15;;;6.90;;
64932;SDS011;51446;53.850;10.662;2023-03-01T02:29:38;12.77;;;7.97;;
64932;SDS011;51446;53.850;10.662;2023-03-01T02:32:04;11.50;;;7.27;;
64932;SDS011;51446;53.850;10.662;2023-03-01T02:34:30;11.32;;;7.07;;
64932;SDS011;51446;53.850;10.662;2023-03-01T02:36:59;13.30;;;8.45;;
64932;SDS011;51446;53.850;10.662;2023-03-01T02:39:39;13.75;;;8.43;;
64932;SDS011;51446;53.850;10.662;2023-03-01T02:42:08;9.93;;;7.60;;
64932;SDS011;51446;53.850;10.662;2023-03-01T02:44:37;11.93;;;8.07;;
64932;SDS011;51446;53.850;10.662;2023-03-01T02:47:03;10.50;;;7.50;;
64932;SDS011;51446;53.850;10.662;2023-03-01T02:49:31;9.38;;;7.22;;
64932;SDS011;51446;53.850;10.662;2023-03-01T02:55:06;12.48;;;8.15;;
64932;SDS011;51446;53.850;10.662;2023-03-01T02:57:35;11.20;;;7.88;;
64932;SDS011;51446;53.850;10.662;2023-03-01T03:00:07;13.43;;;7.20;;
64932;SDS011;51446;53.850;10.662;2023-03-01T03:02:44;10.63;;;7.63;;
64932;SDS011;51446;53.850;10.662;2023-03-01T03:05:15;10.37;;;7.60;;
64932;SDS011;51446;53.850;10.662;2023-03-01T03:07:43;12.98;;;7.10;;
64932;SDS011;51446;53.850;10.662;2023-03-01T03:10:12;10.88;;;7.30;;
64932;SDS011;51446;53.850;10.662;2023-03-01T03:12:39;12.50;;;7.88;;
64932;SDS011;51446;53.850;10.662;2023-03-01T03:15:06;11.53;;;8.00;;
64932;SDS011;51446;53.850;10.662;2023-03-01T03:17:34;12.93;;;8.38;;
64932;SDS011;51446;53.850;10.662;2023-03-01T03:20:04;10.93;;;8.00;;
64932;SDS011;51446;53.850;10.662;2023-03-01T03:22:30;12.73;;;8.18;;
64932;SDS011;51446;53.850;10.662;2023-03-01T03:24:56;13.77;;;7.90;;
64932;SDS011;51446;53.850;10.662;2023-03-01T03:27:22;10.52;;;7.50;;
64932;SDS011;51446;53.850;10.662;2023-03-01T03:29:47;13.00;;;7.22;;
64932;SDS011;51446;53.850;10.662;2023-03-01T03:32:12;9.60;;;7.60;;
64932;SDS011;51446;53.850;10.662;2023-03-01T03:34:37;10.43;;;7.17;;
64932;SDS011;51446;53.850;10.662;2023-03-01T03:37:03;10.93;;;7.30;;
64932;SDS011;51446;53.850;10.662;2023-03-01T03:39:28;13.37;;;7.77;;
64932;SDS011;51446;53.850;10.662;2023-03-01T03:41:53;12.70;;;8.20;;
64932;SDS011;51446;53.850;10.662;2023-03-01T03:44:19;10.50;;;7.30;;
64932;SDS011;51446;53.850;10.662;2023-03-01T03:46:45;10.55;;;7.85;;
64932;SDS011;51446;53.850;10.662;2023-03-01T03:49:10;9.93;;;7.17;;
64932;SDS011;51446;53.850;10.662;2023-03-01T03:51:35;13.80;;;7.50;;
64932;SDS011;51446;53.850;10.662;2023-03-01T03:54:01;9.00;;;7.00;;
64932;SDS011;51446;53.850;10.662;2023-03-01T03:56:26;9.77;;;7.13;;
64932;SDS011;51446;53.850;10.662;2023-03-01T03:58:52;7.37;;;6.57;;
64932;SDS011;51446;53.850;10.662;2023-03-01T04:01:17;15.02;;;7.85;;
64932;SDS011;51446;53.850;10.662;2023-03-01T04:03:43;9.50;;;7.27;;
64932;SDS011;51446;53.850;10.662;2023-03-01T04:06:11;11.73;;;7.20;;
64932;SDS011;51446;53.850;10.662;2023-03-01T04:08:37;11.15;;;7.25;;
64932;SDS011;51446;53.850;10.662;2023-03-01T04:11:03;14.40;;;7.70;;
64932;SDS011;51446;53.850;10.662;2023-03-01T04:13:49;10.00;;;8.13;;
64932;SDS011;51446;53.850;10.662;2023-03-01T04:16:16;12.65;;;7.47;;
64932;SDS011;51446;53.850;10.662;2023-03-01T04:18:42;10.75;;;8.00;;
64932;SDS011;51446;53.850;10.662;2023-03-01T04:21:08;11.10;;;8.15;;
64932;SDS011;51446;53.850;10.662;2023-03-01T04:23:33;10.38;;;7.25;;
64932;SDS011;51446;53.850;10.662;2023-03-01T04:25:58;13.13;;;7.70;;
64932;SDS011;51446;53.850;10.662;2023-03-01T04:28:25;12.07;;;7.87;;
64932;SDS011;51446;53.850;10.662;2023-03-01T04:30:58;14.77;;;9.07;;
64932;SDS011;51446;53.850;10.662;2023-03-01T04:33:26;16.13;;;9.37;;
64932;SDS011;51446;53.850;10.662;2023-03-01T04:35:52;18.47;;;9.33;;
64932;SDS011;51446;53.850;10.662;2023-03-01T04:38:17;18.23;;;9.45;;
64932;SDS011;51446;53.850;10.662;2023-03-01T04:40:44;16.47;;;10.10;;
64932;SDS011;51446;53.850;10.662;2023-03-01T04:43:10;16.85;;;10.02;;
64932;SDS011;51446;53.850;10.662;2023-03-01T04:45:35;13.55;;;8.98;;
64932;SDS011;51446;53.850;10.662;2023-03-01T04:48:01;18.23;;;9.73;;
64932;SDS011;51446;53.850;10.662;2023-03-01T04:50:27;16.45;;;8.88;;
64932;SDS011;51446;53.850;10.662;2023-03-01T04:52:53;17.47;;;8.97;;
64932;SDS011;51446;53.850;10.662;2023-03-01T04:55:18;16.90;;;9.67;;
64932;SDS011;51446;53.850;10.662;2023-03-01T04:57:44;19.80;;;10.95;;
64932;SDS011;51446;53.850;10.662;2023-03-01T05:00:10;18.00;;;10.45;;
64932;SDS011;51446;53.850;10.662;2023-03-01T05:05:31;20.30;;;10.97;;
64932;SDS011;51446;53.850;10.662;2023-03-01T05:08:05;17.45;;;9.48;;
64932;SDS011;51446;53.850;10.662;2023-03-01T05:10:33;19.92;;;10.38;;
64932;SDS011;51446;53.850;10.662;2023-03-01T05:13:00;20.98;;;11.10;;
64932;SDS011;51446;53.850;10.662;2023-03-01T05:15:26;21.20;;;10.80;;
64932;SDS011;51446;53.850;10.662;2023-03-01T05:17:54;22.60;;;11.35;;
64932;SDS011;51446;53.850;10.662;2023-03-01T05:20:20;23.85;;;12.27;;
64932;SDS011;51446;53.850;10.662;2023-03-01T05:22:49;29.00;;;13.55;;
64932;SDS011;51446;53.850;10.662;2023-03-01T05:25:15;28.73;;;13.43;;
64932;SDS011;51446;53.850;10.662;2023-03-01T05:27:40;28.13;;;13.82;;
64932;SDS011;51446;53.850;10.662;2023-03-01T05:30:06;37.33;;;14.23;;
64932;SDS011;51446;53.850;10.662;2023-03-01T05:32:39;35.93;;;14.50;;
64932;SDS011;51446;53.850;10.662;2023-03-01T05:35:10;29.35;;;14.45;;
64932;SDS011;51446;53.850;10.662;2023-03-01T05:37:41;63.67;;;14.93;;
64932;SDS011;51446;53.850;10.662;2023-03-01T05:40:08;35.72;;;14.70;;
64932;SDS011;51446;53.850;10.662;2023-03-01T05:42:40;38.03;;;15.02;;
64932;SDS011;51446;53.850;10.662;2023-03-01T05:45:22;28.23;;;14.30;;
64932;SDS011;51446;53.850;10.662;2023-03-01T05:47:49;50.17;;;16.02;;
64932;SDS011;51446;53.850;10.662;2023-03-01T05:50:16;38.45;;;15.70;;
64932;SDS011;51446;53.850;10.662;2023-03-01T05:52:44;47.27;;;15.63;;
64932;SDS011;51446;53.850;10.662;2023-03-01T05:55:14;30.75;;;15.15;;
64932;SDS011;51446;53.850;10.662;2023-03-01T05:57:42;43.78;;;16.40;;
64932;SDS011;51446;53.850;10.662;2023-03-01T06:00:08;60.67;;;15.07;;
64932;SDS011;51446;53.850;10.662;2023-03-01T06:02:35;65.15;;;15.13;;
64932;SDS011;51446;53.850;10.662;2023-03-01T06:05:00;58.63;;;16.33;;
64932;SDS011;51446;53.850;10.662;2023-03-01T06:07:25;49.57;;;15.50;;
64932;SDS011;51446;53.850;10.662;2023-03-01T06:09:50;55.37;;;15.90;;
64932;SDS011;51446;53.850;10.662;2023-03-01T06:12:16;29.17;;;15.00;;
64932;SDS011;51446;53.850;10.662;2023-03-01T06:14:42;57.65;;;16.65;;
64932;SDS011;51446;53.850;10.662;2023-03-01T06:17:07;61.53;;;15.03;;
64932;SDS011;51446;53.850;10.662;2023-03-01T06:19:32;42.10;;;15.33;;
64932;SDS011;51446;53.850;10.662;2023-03-01T06:21:57;37.57;;;16.03;;
64932;SDS011;51446;53.850;10.662;2023-03-01T06:24:23;51.50;;;16.67;;
64932;SDS011;51446;53.850;10.662;2023-03-01T06:26:48;57.00;;;17.00;;
64932;SDS011;51446;53.850;10.662;2023-03-01T06:29:13;35.07;;;15.87;;
64932;SDS011;51446;53.850;10.662;2023-03-01T06:31:39;33.92;;;16.08;;
64932;SDS011;51446;53.850;10.662;2023-03-01T06:34:04;34.53;;;16.70;;
64932;SDS011;51446;53.850;10.662;2023-03-01T06:36:30;38.47;;;17.37;;
64932;SDS011;51446;53.850;10.662;2023-03-01T06:38:55;36.33;;;17.53;;
64932;SDS011;51446;53.850;10.662;2023-03-01T06:41:20;41.20;;;16.90;;
64932;SDS011;51446;53.850;10.662;2023-03-01T06:43:46;52.53;;;16.27;;
64932;SDS011;51446;53.850;10.662;2023-03-01T06:46:11;29.57;;;15.90;;
64932;SDS011;51446;53.850;10.662;2023-03-01T06:48:36;28.33;;;16.23;;
64932;SDS011;51446;53.850;10.662;2023-03-01T06:51:02;39.67;;;16.85;;
64932;SDS011;51446;53.850;10.662;2023-03-01T06:53:28;51.07;;;15.80;;
64932;SDS011;51446;53.850;10.662;2023-03-01T06:55:54;40.67;;;15.90;;
64932;SDS011;51446;53.850;10.662;2023-03-01T06:58:20;38.35;;;16.38;;
64932;SDS011;51446;53.850;10.662;2023-03-01T07:00:46;53.97;;;17.50;;
64932;SDS011;51446;53.850;10.662;2023-03-01T07:03:11;42.27;;;16.43;;
64932;SDS011;51446;53.850;10.662;2023-03-01T07:05:36;33.40;;;16.53;;
64932;SDS011;51446;53.850;10.662;2023-03-01T07:08:01;30.23;;;15.47;;
64932;SDS011;51446;53.850;10.662;2023-03-01T07:10:27;36.73;;;15.93;;
64932;SDS011;51446;53.850;10.662;2023-03-01T07:12:58;41.17;;;16.30;;
64932;SDS011;51446;53.850;10.662;2023-03-01T07:15:24;43.88;;;16.83;;
64932;SDS011;51446;53.850;10.662;2023-03-01T07:17:50;47.20;;;16.90;;
64932;SDS011;51446;53.850;10.662;2023-03-01T07:20:20;34.50;;;17.80;;
64932;SDS011;51446;53.850;10.662;2023-03-01T07:22:49;41.65;;;16.77;;
64932;SDS011;51446;53.850;10.662;2023-03-01T07:25:15;48.15;;;16.85;;
64932;SDS011;51446;53.850;10.662;2023-03-01T07:27:40;27.57;;;15.77;;
64932;SDS011;51446;53.850;10.662;2023-03-01T07:30:05;41.90;;;17.47;;
64932;SDS011;51446;53.850;10.662;2023-03-01T07:32:31;29.97;;;16.87;;
64932;SDS011;51446;53.850;10.662;2023-03-01T07:34:56;28.90;;;16.03;;
64932;SDS011;51446;53.850;10.662;2023-03-01T07:37:22;30.33;;;17.10;;
64932;SDS011;51446;53.850;10.662;2023-03-01T07:39:47;33.47;;;15.77;;
64932;SDS011;51446;53.850;10.662;2023-03-01T07:42:12;31.03;;;15.43;;
64932;SDS011;51446;53.850;10.662;2023-03-01T07:44:37;37.17;;;18.77;;
64932;SDS011;51446;53.850;10.662;2023-03-01T07:47:03;31.40;;;16.27;;
64932;SDS011;51446;53.850;10.662;2023-03-01T07:49:29;33.30;;;17.35;;
64932;SDS011;51446;53.850;10.662;2023-03-01T07:51:54;33.23;;;15.97;;
64932;SDS011;51446;53.850;10.662;2023-03-01T07:54:19;29.52;;;15.80;;
64932;SDS011;51446;53.850;10.662;2023-03-01T07:56:45;33.80;;;15.27;;
64932;SDS011;51446;53.850;10.662;2023-03-01T07:59:10;29.93;;;14.70;;
64932;SDS011;51446;53.850;10.662;2023-03-01T08:01:35;35.87;;;16.53;;
64932;SDS011;51446;53.850;10.662;2023-03-01T08:04:01;32.77;;;16.33;;
64932;SDS011;51446;53.850;10.662;2023-03-01T08:06:26;34.87;;;18.57;;
64932;SDS011;51446;53.850;10.662;2023-03-01T08:08:52;50.05;;;18.13;;
64932;SDS011;51446;53.850;10.662;2023-03-01T08:11:20;32.80;;;16.60;;
64932;SDS011;51446;53.850;10.662;2023-03-01T08:13:46;46.57;;;15.93;;
64932;SDS011;51446;53.850;10.662;2023-03-01T08:16:13;40.58;;;15.15;;
64932;SDS011;51446;53.850;10.662;2023-03-01T08:18:40;34.77;;;14.50;;
64932;SDS011;51446;53.850;10.662;2023-03-01T08:21:06;35.65;;;15.85;;
64932;SDS011;51446;53.850;10.662;2023-03-01T08:23:33;35.92;;;13.50;;
64932;SDS011;51446;53.850;10.662;2023-03-01T08:26:03;29.47;;;14.10;;
64932;SDS011;51446;53.850;10.662;2023-03-01T08:28:29;31.85;;;13.93;;
64932;SDS011;51446;53.850;10.662;2023-03-01T08:30:54;31.00;;;13.93;;
64932;SDS011;51446;53.850;10.662;2023-03-01T08:33:20;37.37;;;13.27;;
64932;SDS011;51446;53.850;10.662;2023-03-01T08:35:45;41.10;;;14.03;;
64932;SDS011;51446;53.850;10.662;2023-03-01T08:38:10;37.63;;;13.43;;
64932;SDS011;51446;53.850;10.662;2023-03-01T08:40:35;34.00;;;13.63;;
64932;SDS011;51446;53.850;10.662;2023-03-01T08:43:01;28.10;;;13.43;;
64932;SDS011;51446;53.850;10.662;2023-03-01T08:45:26;28.53;;;13.20;;
64932;SDS011;51446;53.850;10.662;2023-03-01T08:47:52;25.97;;;13.47;;
64932;SDS011;51446;53.850;10.662;2023-03-01T08:50:18;28.00;;;13.20;;
64932;SDS011;51446;53.850;10.662;2023-03-01T08:52:43;29.55;;;13.57;;
64932;SDS011;51446;53.850;10.662;2023-03-01T08:55:08;27.58;;;13.23;;
64932;SDS011;51446;53.850;10.662;2023-03-01T08:57:34;26.50;;;12.15;;
64932;SDS011;51446;53.850;10.662;2023-03-01T08:59:59;28.60;;;13.17;;
64932;SDS011;51446;53.850;10.662;2023-03-01T09:02:24;27.93;;;13.23;;
64932;SDS011;51446;53.850;10.662;2023-03-01T09:04:50;26.53;;;12.23;;
64932;SDS011;51446;53.850;10.662;2023-03-01T09:07:15;25.63;;;12.10;;
64932;SDS011;51446;53.850;10.662;2023-03-01T09:09:40;26.10;;;12.27;;
64932;SDS011;51446;53.850;10.662;2023-03-01T09:12:06;21.07;;;11.80;;
64932;SDS011;51446;53.850;10.662;2023-03-01T09:14:31;21.83;;;10.90;;
64932;SDS011;51446;53.850;10.662;2023-03-01T09:16:57;21.33;;;11.27;;
64932;SDS011;51446;53.850;10.662;2023-03-01T09:19:22;21.10;;;10.93;;
64932;SDS011;51446;53.850;10.662;2023-03-01T09:21:47;17.50;;;9.97;;
64932;SDS011;51446;53.850;10.662;2023-03-01T09:24:20;16.77;;;9.90;;
64932;SDS011;51446;53.850;10.662;2023-03-01T09:26:46;17.52;;;9.40;;
64932;SDS011;51446;53.850;10.662;2023-03-01T09:29:12;16.63;;;9.90;;
64932;SDS011;51446;53.850;10.662;2023-03-01T09:31:39;15.63;;;9.20;;
64932;SDS011;51446;53.850;10.662;2023-03-01T09:34:04;16.23;;;8.87;;
64932;SDS011;51446;53.850;10.662;2023-03-01T09:36:30;11.90;;;7.75;;
64932;SDS011;51446;53.850;10.662;2023-03-01T09:38:57;12.47;;;7.40;;
64932;SDS011;51446;53.850;10.662;2023-03-01T09:44:09;13.10;;;7.78;;
64932;SDS011;51446;53.850;10.662;2023-03-01T09:46:44;11.07;;;7.40;;
64932;SDS011;51446;53.850;10.662;2023-03-01T09:49:12;10.90;;;7.10;;
64932;SDS011;51446;53.850;10.662;2023-03-01T09:51:42;11.02;;;7.90;;
64932;SDS011;51446;53.850;10.662;2023-03-01T09:54:12;9.37;;;6.77;;
64932;SDS011;51446;53.850;10.662;2023-03-01T10:02:23;9.05;;;6.10;;
64932;SDS011;51446;53.850;10.662;2023-03-01T10:10:38;8.63;;;6.20;;
64932;SDS011;51446;53.850;10.662;2023-03-01T10:13:15;10.10;;;6.03;;
64932;SDS011;51446;53.850;10.662;2023-03-01T10:15:50;8.52;;;6.25;;
64932;SDS011;51446;53.850;10.662;2023-03-01T10:18:22;9.65;;;5.63;;
64932;SDS011;51446;53.850;10.662;2023-03-01T10:21:02;8.82;;;6.63;;
64932;SDS011;51446;53.850;10.662;2023-03-01T10:23:34;10.15;;;6.60;;
64932;SDS011;51446;53.850;10.662;2023-03-01T10:28:50;7.43;;;5.68;;
64932;SDS011;51446;53.850;10.662;2023-03-01T10:31:25;8.05;;;4.97;;
64932;SDS011;51446;53.850;10.662;2023-03-01T10:34:01;8.30;;;5.05;;
64932;SDS011;51446;53.850;10.662;2023-03-01T10:36:28;8.67;;;5.33;;
64932;SDS011;51446;53.850;10.662;2023-03-01T10:38:57;9.38;;;4.95;;
64932;SDS011;51446;53.850;10.662;2023-03-01T10:41:23;6.93;;;5.10;;
64932;SDS011;51446;53.850;10.662;2023-03-01T10:43:57;6.72;;;5.13;;
64932;SDS011;51446;53.850;10.662;2023-03-01T10:46:26;7.60;;;5.10;;
64932;SDS011;51446;53.850;10.662;2023-03-01T10:51:52;6.55;;;4.40;;
64932;SDS011;51446;53.850;10.662;2023-03-01T10:54:19;5.47;;;4.30;;
64932;SDS011;51446;53.850;10.662;2023-03-01T10:56:47;6.78;;;4.65;;
64932;SDS011;51446;53.850;10.662;2023-03-01T10:59:26;5.30;;;4.22;;
64932;SDS011;51446;53.850;10.662;2023-03-01T11:04:56;7.65;;;4.88;;
64932;SDS011;51446;53.850;10.662;2023-03-01T11:07:22;6.80;;;4.43;;
64932;SDS011;51446;53.850;10.662;2023-03-01T11:09:48;6.10;;;4.00;;
64932;SDS011;51446;53.850;10.662;2023-03-01T11:12:14;4.93;;;4.20;;
64932;SDS011;51446;53.850;10.662;2023-03-01T11:14:48;7.18;;;4.50;;
64932;SDS011;51446;53.850;10.662;2023-03-01T11:17:21;8.07;;;4.30;;
64932;SDS011;51446;53.850;10.662;2023-03-01T11:22:47;6.90;;;4.20;;
64932;SDS011;51446;53.850;10.662;2023-03-01T11:25:16;6.37;;;3.60;;
64932;SDS011;51446;53.850;10.662;2023-03-01T11:27:45;4.22;;;3.60;;
64932;SDS011;51446;53.850;10.662;2023-03-01T11:30:20;5.28;;;3.90;;
64932;SDS011;51446;53.850;10.662;2023-03-01T11:35:32;5.43;;;3.85;;
64932;SDS011;51446;53.850;10.662;2023-03-01T11:38:05;8.10;;;4.17;;
64932;SDS011;51446;53.850;10.662;2023-03-01T11:40:39;5.18;;;3.72;;
64932;SDS011;51446;53.850;10.662;2023-03-01T11:43:26;4.90;;;3.45;;
64932;SDS011;51446;53.850;10.662;2023-03-01T11:46:02;4.63;;;3.45;;
64932;SDS011;51446;53.850;10.662;2023-03-01T11:48:39;4.32;;;3.15;;
64932;SDS011;51446;53.850;10.662;2023-03-01T11:51:17;4.37;;;3.30;;
64932;SDS011;51446;53.850;10.662;2023-03-01T11:56:40;5.63;;;3.25;;
64932;SDS011;51446;53.850;10.662;2023-03-01T11:59:24;3.85;;;3.30;;
64932;SDS011;51446;53.850;10.662;2023-03-01T12:04:54;3.83;;;3.37;;
64932;SDS011;51446;53.850;10.662;2023-03-01T12:10:29;6.05;;;4.15;;
64932;SDS011;51446;53.850;10.662;2023-03-01T12:13:10;7.57;;;5.03;;
64932;SDS011;51446;53.850;10.662;2023-03-01T12:16:07;4.63;;;3.67;;
64932;SDS011;51446;53.850;10.662;2023-03-01T12:19:19;6.90;;;4.13;;
64932;SDS011;51446;53.850;10.662;2023-03-01T12:22:04;6.35;;;4.30;;
64932;SDS011;51446;53.850;10.662;2023-03-01T12:39:15;8.02;;;5.25;;
64932;SDS011;51446;53.850;10.662;2023-03-01T12:45:03;7.40;;;5.68;;
64932;SDS011;51446;53.850;10.662;2023-03-01T12:47:48;7.20;;;5.10;;
64932;SDS011;51446;53.850;10.662;2023-03-01T12:50:18;7.40;;;5.35;;
64932;SDS011;51446;53.850;10.662;2023-03-01T12:52:51;8.18;;;5.90;;
64932;SDS011;51446;53.850;10.662;2023-03-01T12:55:36;7.03;;;5.60;;
64932;SDS011;51446;53.850;10.662;2023-03-01T13:00:59;6.97;;;5.47;;
64932;SDS011;51446;53.850;10.662;2023-03-01T13:03:40;7.15;;;5.30;;
64932;SDS011;51446;53.850;10.662;2023-03-01T13:06:25;9.05;;;5.70;;
64932;SDS011;51446;53.850;10.662;2023-03-01T13:11:44;7.30;;;5.85;;
64932;SDS011;51446;53.850;10.662;2023-03-01T13:16:50;9.82;;;6.15;;
64932;SDS011;51446;53.850;10.662;2023-03-01T13:19:17;13.75;;;5.78;;
64932;SDS011;51446;53.850;10.662;2023-03-01T13:21:46;7.38;;;5.68;;
64932;SDS011;51446;53.850;10.662;2023-03-01T13:29:43;7.47;;;5.40;;
64932;SDS011;51446;53.850;10.662;2023-03-01T13:32:21;7.68;;;6.05;;
64932;SDS011;51446;53.850;10.662;2023-03-01T13:35:03;9.13;;;6.47;;
64932;SDS011;51446;53.850;10.662;2023-03-01T13:37:50;9.95;;;5.65;;
64932;SDS011;51446;53.850;10.662;2023-03-01T13:42:43;8.05;;;5.85;;
64932;SDS011;51446;53.850;10.662;2023-03-01T13:48:09;6.72;;;5.80;;
64932;SDS011;51446;53.850;10.662;2023-03-01T13:50:45;8.73;;;6.10;;
64932;SDS011;51446;53.850;10.662;2023-03-01T13:53:19;8.38;;;6.18;;
64932;SDS011;51446;53.850;10.662;2023-03-01T13:55:48;8.38;;;5.82;;
64932;SDS011;51446;53.850;10.662;2023-03-01T13:58:23;8.77;;;5.90;;
64932;SDS011;51446;53.850;10.662;2023-03-01T14:00:57;8.52;;;6.63;;
64932;SDS011;51446;53.850;10.662;2023-03-01T14:03:31;7.88;;;5.57;;
64932;SDS011;51446;53.850;10.662;2023-03-01T14:08:34;7.97;;;5.72;;
64932;SDS011;51446;53.850;10.662;2023-03-01T14:14:09;6.85;;;5.03;;
64932;SDS011;51446;53.850;10.662;2023-03-01T14:19:21;8.20;;;5.30;;
64932;SDS011;51446;53.850;10.662;2023-03-01T14:24:49;7.07;;;5.07;;
64932;SDS011;51446;53.850;10.662;2023-03-01T14:27:16;6.63;;;5.43;;
64932;SDS011;51446;53.850;10.662;2023-03-01T14:29:43;7.03;;;6.03;;
64932;SDS011;51446;53.850;10.662;2023-03-01T14:32:19;7.05;;;5.70;;
64932;SDS011;51446;53.850;10.662;2023-03-01T14:34:47;9.15;;;5.78;;
64932;SDS011;51446;53.850;10.662;2023-03-01T14:37:27;7.07;;;5.55;;
64932;SDS011;51446;53.850;10.662;2023-03-01T14:39:56;7.85;;;6.22;;
64932;SDS011;51446;53.850;10.662;2023-03-01T14:42:23;9.30;;;6.28;;
64932;SDS011;51446;53.850;10.662;2023-03-01T14:44:52;8.40;;;6.13;;
64932;SDS011;51446;53.850;10.662;2023-03-01T14:47:30;9.52;;;7.40;;
64932;SDS011;51446;53.850;10.662;2023-03-01T14:49:59;10.23;;;7.43;;
64932;SDS011;51446;53.850;10.662;2023-03-01T14:52:39;9.40;;;6.53;;
64932;SDS011;51446;53.850;10.662;2023-03-01T14:55:21;10.82;;;7.93;;
64932;SDS011;51446;53.850;10.662;2023-03-01T14:57:52;9.10;;;6.85;;
64932;SDS011;51446;53.850;10.662;2023-03-01T15:00:19;9.95;;;6.50;;
64932;SDS011;51446;53.850;10.662;2023-03-01T15:02:47;10.10;;;6.90;;
64932;SDS011;51446;53.850;10.662;2023-03-01T15:05:15;9.18;;;6.80;;
64932;SDS011;51446;53.850;10.662;2023-03-01T15:07:48;10.23;;;7.60;;
64932;SDS011;51446;53.850;10.662;2023-03-01T15:10:22;9.88;;;7.50;;
64932;SDS011;51446;53.850;10.662;2023-03-01T15:12:49;9.45;;;7.53;;
64932;SDS011;51446;53.850;10.662;2023-03-01T15:15:31;8.57;;;6.93;;
64932;SDS011;51446;53.850;10.662;2023-03-01T15:17:59;10.27;;;6.80;;
64932;SDS011;51446;53.850;10.662;2023-03-01T15:20:27;10.75;;;7.72;;
64932;SDS011;51446;53.850;10.662;2023-03-01T15:22:55;10.13;;;7.60;;
64932;SDS011;51446;53.850;10.662;2023-03-01T15:25:22;10.77;;;7.60;;
64932;SDS011;51446;53.850;10.662;2023-03-01T15:27:52;10.32;;;7.80;;
64932;SDS011;51446;53.850;10.662;2023-03-01T15:33:19;10.05;;;7.40;;
64932;SDS011;51446;53.850;10.662;2023-03-01T15:35:50;10.82;;;8.07;;
64932;SDS011;51446;53.850;10.662;2023-03-01T15:41:19;11.40;;;8.65;;
64932;SDS011;51446;53.850;10.662;2023-03-01T15:43:50;9.77;;;7.60;;
64932;SDS011;51446;53.850;10.662;2023-03-01T15:46:23;14.73;;;8.50;;
64932;SDS011;51446;53.850;10.662;2023-03-01T15:48:52;12.00;;;8.48;;
64932;SDS011;51446;53.850;10.662;2023-03-01T15:51:22;10.88;;;8.43;;
64932;SDS011;51446;53.850;10.662;2023-03-01T15:53:53;11.25;;;8.50;;
64932;SDS011;51446;53.850;10.662;2023-03-01T15:56:19;15.03;;;8.73;;
64932;SDS011;51446;53.850;10.662;2023-03-01T15:58:44;15.60;;;9.87;;
64932;SDS011;51446;53.850;10.662;2023-03-01T16:01:13;14.53;;;9.43;;
64932;SDS011;51446;53.850;10.662;2023-03-01T16:03:40;12.02;;;9.10;;
64932;SDS011;51446;53.850;10.662;2023-03-01T16:06:05;14.23;;;10.00;;
64932;SDS011;51446;53.850;10.662;2023-03-01T16:08:31;14.60;;;10.07;;
64932;SDS011;51446;53.850;10.662;2023-03-01T16:10:56;12.67;;;9.33;;
64932;SDS011;51446;53.850;10.662;2023-03-01T16:13:21;14.87;;;10.43;;
64932;SDS011;51446;53.850;10.662;2023-03-01T16:15:47;14.40;;;10.53;;